Flight Track Log - Related Links

Times and Time Zones

All times are in EDT time to prevent confusion due to time zone crossing. See the SWA2114 flight status page for this flight to view local times or setup timezone preferences in your user account.

Time Position Orientation Groundspeed Altitude Reporting Facility
EDT Latitude Longitude Course Direction KTS MPH feet Rate Location/Type
Sat 09:34:39 AM 42.9333 -87.9333 270° West 181 208 1,800  Level KMKE
Sat 09:35:34 AM 42.9333 -88.0000 270° West 203 234 3,600 2,577 Climbing KMKE
Sat 09:37:08 AM 42.9142 -88.1386 259° West 240 276 8,200 2,981 Climbing Chicago Center
Sat 09:38:09 AM 42.9067 -88.2372 264° West 258 297 11,300 2,341 Climbing Chicago Center
Sat 09:39:11 AM 42.9072 -88.3456 270° West 285 328 13,000 1,756 Climbing Chicago Center
Sat 09:40:12 AM 42.9069 -88.4714 270° West 322 371 14,900 2,098 Climbing Chicago Center
Sat 09:41:14 AM 42.9081 -88.6028 271° West 345 397 17,300 2,244 Climbing Chicago Center
Sat 09:42:15 AM 42.9083 -88.7364 270° West 349 402 19,500 2,195 Climbing Chicago Center
Sat 09:43:17 AM 42.9053 -88.8681 268° West 346 398 21,800 2,000 Climbing Chicago Center
Sat 09:44:18 AM 42.8994 -88.9972 267° West 340 391 23,600 1,707 Climbing Chicago Center
Sat 09:45:20 AM 42.8942 -89.1494 267° West 344 396 25,300 1,366 Climbing Chicago Center
Sat 09:46:21 AM 42.8875 -89.2817 266° West 349 402 26,400 1,230 Climbing Chicago Center
Sat 09:47:22 AM 42.8772 -89.4169 264° West 355 409 27,800 1,220 Climbing Chicago Center
Sat 09:48:24 AM 42.8431 -89.5511 251° West 371 427 28,900 1,220 Climbing Chicago Center
Sat 09:49:25 AM 42.8119 -89.6839 252° West 369 425 30,300 1,122 Climbing Chicago Center
Sat 09:50:27 AM 42.7806 -89.8167 252° West 368 423 31,200 1,073 Climbing Chicago Center
Sat 09:51:28 AM 42.7492 -89.9453 252° West 372 428 32,500 976 Climbing Chicago Center
Sat 09:52:30 AM 42.7175 -90.0744 252° West 363 418 33,200 634 Climbing Chicago Center
Sat 09:53:31 AM 42.6794 -90.2344 252° West 373 429 33,800 390 Climbing Chicago Center
Sat 09:54:33 AM 42.6458 -90.3714 252° West 383 441 34,000 98 Climbing Chicago Center
Sat 09:55:34 AM 42.6111 -90.5089 251° West 386 444 34,000  Level Chicago Center
Sat 09:56:36 AM 42.5778 -90.6478 252° West 390 449 34,000  Level Chicago Center
Sat 09:57:37 AM 42.5431 -90.7858 251° West 389 448 34,000  Level Chicago Center
Sat 09:58:39 AM 42.5089 -90.9228 251° West 384 442 34,000  Level Chicago Center
Sat 09:59:40 AM 42.4744 -91.0597 251° West 385 443 34,000  Level Chicago Center
Sat 10:00:41 AM 42.4397 -91.1961 251° West 384 442 34,000  Level Chicago Center
Sat 10:01:43 AM 42.3978 -91.3611 251° West 385 443 34,000  Level Chicago Center
Sat 10:02:44 AM 42.3617 -91.4997 251° West 391 450 34,000  Level Chicago Center
Sat 10:03:46 AM 42.3253 -91.6364 250° West 385 443 34,000  Level Chicago Center
Sat 10:04:47 AM 42.2900 -91.7739 251° West 387 445 34,000  Level Chicago Center
Sat 10:05:49 AM 42.2539 -91.9114 251° West 388 447 34,000  Level Chicago Center
Sat 10:06:50 AM 42.2183 -92.0472 251° West 388 447 34,000  Level Chicago Center
Sat 10:07:52 AM 42.1817 -92.1825 250° West 386 444 34,000  Level Chicago Center
Sat 10:08:53 AM 42.1456 -92.3186 250° West 386 444 34,000  Level Chicago Center
Sat 10:09:55 AM 42.1014 -92.4808 250° West 387 445 34,000  Level Chicago Center
Sat 10:10:56 AM 42.0658 -92.6158 251° West 385 443 34,000  Level Chicago Center
Sat 10:11:58 AM 42.0286 -92.7503 250° West 386 444 34,000  Level Chicago Center
Sat 10:12:59 AM 41.9919 -92.8864 250° West 388 447 34,000  Level Chicago Center
Sat 10:14:01 AM 41.9553 -93.0217 250° West 389 448 34,000  Level Chicago Center
Sat 10:15:05 AM 41.9147 -93.1639 249° West 390 449 34,000  Level Minneapolis Center
Sat 10:16:06 AM 41.8786 -93.2978 250° West 387 445 34,000  Level Minneapolis Center
Sat 10:17:08 AM 41.8331 -93.4600 249° West 390 449 34,000  Level Minneapolis Center
Sat 10:18:09 AM 41.7967 -93.5906 250° West 381 438 34,000  Level Minneapolis Center
Sat 10:19:11 AM 41.7597 -93.7231 250° West 381 438 34,000  Level Minneapolis Center
Sat 10:20:12 AM 41.7217 -93.8564 249° West 385 443 34,000  Level Minneapolis Center
Sat 10:21:13 AM 41.6853 -93.9864 249° West 382 440 34,000  Level Minneapolis Center
Sat 10:22:15 AM 41.6381 -94.1186 244° Southwest 387 445 34,000  Level Minneapolis Center
Sat 10:23:16 AM 41.5464 -94.2431 225° Southwest 392 451 34,000  Level Minneapolis Center
Sat 10:24:18 AM 41.4675 -94.3467 225° Southwest 395 455 34,000  Level Minneapolis Center
Sat 10:25:19 AM 41.3947 -94.4531 228° Southwest 392 451 34,000  Level Minneapolis Center
Sat 10:26:20 AM 41.3272 -94.5642 231° Southwest 397 457 34,000  Level Minneapolis Center
Sat 10:27:22 AM 41.2853 -94.6925 247° West 383 441 34,000  Level Minneapolis Center
Sat 10:28:23 AM 41.2447 -94.8219 247° West 380 437 34,000  Level Minneapolis Center
Sat 10:29:25 AM 41.2036 -94.9514 247° West 379 436 34,000  Level Minneapolis Center
Sat 10:30:26 AM 41.1611 -95.0789 246° West 378 435 34,000  Level Minneapolis Center
Sat 10:31:27 AM 41.1189 -95.2097 247° West 382 440 34,000  Level Minneapolis Center
Sat 10:32:29 AM 41.0764 -95.3408 247° West 385 443 34,000  Level Minneapolis Center
Sat 10:33:30 AM 41.0336 -95.4706 246° West 384 442 34,000  Level Minneapolis Center
Sat 10:34:32 AM 40.9828 -95.6264 247° West 384 442 34,000  Level Minneapolis Center
Sat 10:35:33 AM 40.9400 -95.7542 246° West 379 436 34,000  Level Minneapolis Center
Sat 10:36:35 AM 40.8972 -95.8828 246° West 380 437 34,000  Level Minneapolis Center
Sat 10:37:36 AM 40.8542 -96.0108 246° West 379 436 34,000  Level Minneapolis Center
Sat 10:38:37 AM 40.8117 -96.1400 247° West 380 437 34,000  Level Minneapolis Center
Sat 10:39:39 AM 40.7675 -96.2686 246° West 382 440 34,000  Level Minneapolis Center
Sat 10:40:40 AM 40.7236 -96.3981 246° West 384 442 34,000  Level Minneapolis Center
Sat 10:41:42 AM 40.6789 -96.5272 245° Southwest 386 444 34,000  Level Minneapolis Center
Sat 10:42:43 AM 40.6356 -96.6556 246° West 384 442 34,000  Level Minneapolis Center
Sat 10:43:44 AM 40.5900 -96.7864 245° Southwest 388 447 34,000  Level Minneapolis Center
Sat 10:44:46 AM 40.5461 -96.9161 246° West 388 447 34,000  Level Minneapolis Center
Sat 10:45:47 AM 40.4914 -97.0725 245° Southwest 391 450 34,000  Level Minneapolis Center
Sat 10:46:49 AM 40.4456 -97.2042 245° Southwest 394 453 34,000  Level Minneapolis Center
Sat 10:47:50 AM 40.4006 -97.3356 246° West 395 455 34,000  Level Minneapolis Center
Sat 10:48:51 AM 40.3597 -97.4506 245° Southwest 396 456 34,000  Level Minneapolis Center
Sat 10:49:53 AM 40.3031 -97.6097 245° Southwest 399 459 34,000  Level Minneapolis Center
Sat 10:50:54 AM 40.2564 -97.7419 245° Southwest 398 458 34,000  Level Minneapolis Center
Sat 10:51:56 AM 40.2092 -97.8725 245° Southwest 397 457 34,000  Level Minneapolis Center
Sat 10:52:57 AM 40.1617 -98.0050 245° Southwest 399 459 34,000  Level Minneapolis Center
Sat 10:53:58 AM 40.1139 -98.1361 245° Southwest 399 459 34,000  Level Minneapolis Center
Sat 10:55:00 AM 40.0675 -98.2669 245° Southwest 397 457 34,000  Level Minneapolis Center
Sat 10:56:01 AM 40.0200 -98.3978 245° Southwest 397 457 34,000  Level Minneapolis Center
Sat 10:57:03 AM 39.9717 -98.5281 244° Southwest 398 458 34,000  Level Minneapolis Center
Sat 10:58:04 AM 39.9244 -98.6586 245° Southwest 397 457 34,000  Level Minneapolis Center
Sat 10:59:06 AM 39.8758 -98.7881 244° Southwest 397 457 34,000  Level Minneapolis Center
Sat 10:59:45 AM 39.8372 -98.8939 245° Southwest 398 458 34,000  Level Denver Center
Sat 11:00:47 AM 39.7886 -99.0242 244° Southwest 399 459 34,000  Level Denver Center
Sat 11:01:49 AM 39.7397 -99.1553 244° Southwest 400 460 34,000  Level Denver Center
Sat 11:02:51 AM 39.6908 -99.2856 244° Southwest 401 461 34,000  Level Denver Center
Sat 11:03:53 AM 39.6417 -99.4164 244° Southwest 401 461 34,000  Level Denver Center
Sat 11:04:55 AM 39.5933 -99.5458 244° Southwest 399 459 34,000  Level Denver Center
Sat 11:05:57 AM 39.5442 -99.6733 243° Southwest 395 455 34,000  Level Denver Center
Sat 11:06:59 AM 39.4861 -99.8256 244° Southwest 395 455 34,000  Level Denver Center
Sat 11:08:01 AM 39.4392 -99.9472 243° Southwest 394 453 34,000  Level Denver Center
Sat 11:09:03 AM 39.3853 -100.0894 244° Southwest 395 455 34,000  Level Denver Center
Sat 11:10:04 AM 39.3375 -100.2086 243° Southwest 390 449 34,000  Level Denver Center
Sat 11:11:06 AM 39.2906 -100.3317 244° Southwest 395 455 34,000  Level Denver Center
Sat 11:12:08 AM 39.2442 -100.4531 244° Southwest 394 453 34,000  Level Denver Center
Sat 11:13:10 AM 39.1889 -100.5919 243° Southwest 391 450 34,000  Level Denver Center
Sat 11:14:12 AM 39.1331 -100.7317 243° Southwest 392 451 34,000  Level Denver Center
Sat 11:15:14 AM 39.0864 -100.8531 244° Southwest 394 453 34,000  Level Denver Center
Sat 11:16:16 AM 39.0303 -100.9922 243° Southwest 394 453 34,000  Level Denver Center
Sat 11:17:18 AM 38.9822 -101.1119 243° Southwest 396 456 34,000  Level Denver Center
Sat 11:18:20 AM 38.9264 -101.2542 243° Southwest 400 460 34,000  Level Denver Center
Sat 11:19:22 AM 38.8778 -101.3733 242° Southwest 396 456 34,000  Level Denver Center
Sat 11:20:24 AM 38.8203 -101.5150 243° Southwest 402 463 34,000  Level Denver Center
Sat 11:21:25 AM 38.7711 -101.6356 242° Southwest 401 461 34,000  Level Denver Center
Sat 11:22:27 AM 38.7144 -101.7775 243° Southwest 402 463 34,000  Level Denver Center
Sat 11:23:29 AM 38.6642 -101.8981 242° Southwest 402 463 34,000  Level Denver Center
Sat 11:24:31 AM 38.6147 -102.0181 242° Southwest 401 461 34,000  Level Denver Center
Sat 11:25:33 AM 38.5575 -102.1606 243° Southwest 404 465 34,000  Level Denver Center
Sat 11:26:35 AM 38.5069 -102.2806 242° Southwest 404 465 34,000  Level Denver Center
Sat 11:27:36 AM 38.4497 -102.4203 242° Southwest 401 461 34,000  Level Denver Center
Sat 11:28:38 AM 38.4011 -102.5400 243° Southwest 399 459 34,000  Level Denver Center
Sat 11:29:40 AM 38.3406 -102.6817 241° Southwest 404 465 34,000  Level Denver Center
Sat 11:30:42 AM 38.2914 -102.8000 242° Southwest 400 460 34,000  Level Denver Center
Sat 11:31:43 AM 38.2325 -102.9400 242° Southwest 401 461 34,000  Level Denver Center
Sat 11:32:45 AM 38.1806 -103.0606 241° Southwest 403 464 34,000  Level Denver Center
Sat 11:33:47 AM 38.1283 -103.1814 241° Southwest 401 461 34,000  Level Denver Center
Sat 11:34:49 AM 38.0686 -103.3211 242° Southwest 403 464 34,000  Level Denver Center
Sat 11:35:50 AM 38.0175 -103.4400 241° Southwest 403 464 34,000  Level Denver Center
Sat 11:36:52 AM 37.9575 -103.5800 242° Southwest 404 465 34,000  Level Denver Center
Sat 11:37:54 AM 37.9061 -103.6992 241° Southwest 405 466 34,000  Level Denver Center
Sat 11:38:56 AM 37.8458 -103.8378 241° Southwest 404 465 34,000  Level Denver Center
Sat 11:39:57 AM 37.7944 -103.9564 241° Southwest 403 464 34,000  Level Denver Center
Sat 11:40:59 AM 37.7336 -104.0925 241° Southwest 403 464 34,000  Level Denver Center
Sat 11:42:01 AM 37.6831 -104.2078 241° Southwest 399 459 34,000  Level Denver Center
Sat 11:43:03 AM 37.6233 -104.3436 241° Southwest 400 460 34,000  Level Denver Center
Sat 11:44:05 AM 37.5706 -104.4614 241° Southwest 404 465 34,000  Level Denver Center
Sat 11:45:06 AM 37.5092 -104.5994 241° Southwest 406 467 34,000  Level Denver Center
Sat 11:46:08 AM 37.4564 -104.7189 241° Southwest 408 470 34,000  Level Denver Center
Sat 11:47:10 AM 37.3947 -104.8564 241° Southwest 405 466 34,000  Level Denver Center
Sat 11:48:12 AM 37.3408 -104.9750 240° Southwest 407 468 34,000  Level Denver Center
Sat 11:49:13 AM 37.2875 -105.0919 240° Southwest 404 465 34,000  Level Denver Center
Sat 11:50:15 AM 37.2244 -105.2294 240° Southwest 407 468 34,000  Level Denver Center
Sat 11:51:17 AM 37.1711 -105.3475 240° Southwest 407 468 34,000  Level Denver Center
Sat 11:52:19 AM 37.1089 -105.4850 240° Southwest 406 467 34,000  Level Denver Center
Sat 11:53:21 AM 37.0536 -105.6011 239° Southwest 406 467 34,000  Level Denver Center
Sat 11:54:08 AM 37.0114 -105.6986 242° Southwest 406 467 34,000  Level Albuquerque Center
Sat 11:55:10 AM 36.9486 -105.8356 240° Southwest 414 476 34,000  Level Albuquerque Center
Sat 11:56:12 AM 36.8953 -105.9544 241° Southwest 414 476 34,000  Level Albuquerque Center
Sat 11:57:13 AM 36.8317 -106.0917 240° Southwest 413 475 34,000  Level Albuquerque Center
Sat 11:57:28 AM 36.8194 -106.1125 234° Southwest 410 472 34,000  Level Denver Center
Sat 11:58:30 AM 36.7550 -106.2464 239° Southwest 411 473 34,000  Level Denver Center
Sat 11:59:31 AM 36.7008 -106.3622 240° Southwest 410 472 34,000  Level Denver Center
Sat 12:00:33 PM 36.6436 -106.4850 240° Southwest 410 472 34,000  Level Denver Center
Sat 12:01:19 PM 36.5986 -106.5814 240° Southwest 412 474 34,000  Level Albuquerque Center
Sat 12:02:22 PM 36.5347 -106.7164 240° Southwest 408 470 34,000  Level Albuquerque Center
Sat 12:02:37 PM 36.5250 -106.7339 235° Southwest 409 471 34,000  Level Denver Center
Sat 12:03:38 PM 36.4608 -106.8689 239° Southwest 407 468 34,000  Level Denver Center
Sat 12:04:40 PM 36.4058 -106.9836 239° Southwest 406 467 34,000  Level Denver Center
Sat 12:05:26 PM 36.3608 -107.0814 240° Southwest 404 465 34,000  Level Albuquerque Center
Sat 12:06:28 PM 36.3053 -107.1947 239° Southwest 402 463 34,000  Level Albuquerque Center
Sat 12:07:29 PM 36.2414 -107.3289 239° Southwest 403 464 34,000  Level Albuquerque Center
Sat 12:08:31 PM 36.1856 -107.4431 239° Southwest 404 465 34,000  Level Albuquerque Center
Sat 12:09:32 PM 36.1219 -107.5750 239° Southwest 401 461 34,000  Level Albuquerque Center
Sat 12:10:34 PM 36.0661 -107.6883 239° Southwest 402 463 34,000  Level Albuquerque Center
Sat 12:11:36 PM 36.0103 -107.8019 239° Southwest 403 464 34,000  Level Albuquerque Center
Sat 12:12:37 PM 35.9461 -107.9333 239° Southwest 400 460 34,000  Level Albuquerque Center
Sat 12:13:39 PM 35.8897 -108.0469 239° Southwest 403 464 34,000  Level Albuquerque Center
Sat 12:14:41 PM 35.8244 -108.1803 239° Southwest 404 465 34,000  Level Albuquerque Center
Sat 12:15:42 PM 35.7678 -108.2931 238° Southwest 404 465 34,000  Level Albuquerque Center
Sat 12:16:44 PM 35.7122 -108.4064 239° Southwest 403 464 34,000  Level Albuquerque Center
Sat 12:17:46 PM 35.6456 -108.5381 238° Southwest 403 464 34,000  Level Albuquerque Center
Sat 12:18:48 PM 35.5900 -108.6506 239° Southwest 402 463 34,000  Level Albuquerque Center
Sat 12:19:49 PM 35.5244 -108.7789 238° Southwest 398 458 34,000  Level Albuquerque Center
Sat 12:20:51 PM 35.4664 -108.8900 237° Southwest 399 459 34,000  Level Albuquerque Center
Sat 12:21:53 PM 35.3886 -108.9875 226° Southwest 413 475 34,000  Level Albuquerque Center
Sat 12:22:54 PM 35.3011 -109.1022 227° Southwest 412 474 34,000  Level Albuquerque Center
Sat 12:23:56 PM 35.2258 -109.1994 227° Southwest 410 472 34,000  Level Albuquerque Center
Sat 12:24:58 PM 35.1372 -109.3125 226° Southwest 411 473 34,000  Level Albuquerque Center
Sat 12:26:00 PM 35.0614 -109.4108 227° Southwest 413 475 34,000  Level Albuquerque Center
Sat 12:27:01 PM 34.9722 -109.5178 225° Southwest 403 464 34,000  Level Albuquerque Center
Sat 12:28:03 PM 34.8969 -109.6142 226° Southwest 406 467 34,000  Level Albuquerque Center
Sat 12:29:05 PM 34.8100 -109.7272 227° Southwest 408 470 34,000  Level Albuquerque Center
Sat 12:30:07 PM 34.7356 -109.8214 226° Southwest 406 467 34,000  Level Albuquerque Center
Sat 12:31:09 PM 34.6819 -109.9281 239° Southwest 387 445 34,000 -581 Level Albuquerque Center
Sat 12:32:11 PM 34.6347 -110.0531 245° Southwest 367 422 32,800 -1,073 Descending Albuquerque Center
Sat 12:33:12 PM 34.5975 -110.1644 248° West 370 426 31,800 -976 Descending Albuquerque Center
Sat 12:34:14 PM 34.5519 -110.2931 247° West 370 426 30,800 -968 Descending Albuquerque Center
Sat 12:35:16 PM 34.5064 -110.3947 241° Southwest 363 418 29,800 -919 Descending Albuquerque Center
Sat 12:36:18 PM 34.4650 -110.5125 247° West 390 449 28,900 -919 Descending Albuquerque Center
Sat 12:37:20 PM 34.4231 -110.6272 246° West 377 434 27,900 -1,113 Descending Albuquerque Center
Sat 12:38:22 PM 34.3689 -110.7586 243° Southwest 367 422 26,600 -1,122 Descending Albuquerque Center
Sat 12:39:23 PM 34.3072 -110.8550 232° Southwest 365 420 25,600 -976 Descending Albuquerque Center
Sat 12:40:25 PM 34.2372 -110.9467 227° Southwest 370 426 24,600 -1,016 Descending Albuquerque Center
Sat 12:41:27 PM 34.1669 -111.0381 227° Southwest 370 426 23,500 -1,548 Descending Albuquerque Center
Sat 12:42:29 PM 34.0950 -111.1306 227° Southwest 376 433 21,400 -1,984 Descending Albuquerque Center
Sat 12:43:31 PM 34.0261 -111.2192 227° Southwest 367 422 19,400 -1,887 Descending Albuquerque Center
Sat 12:44:33 PM 33.9608 -111.3028 227° Southwest 348 400 17,500 -1,742 Descending Albuquerque Center
Sat 12:45:35 PM 33.8856 -111.3997 227° Southwest 329 379 15,800 -1,561 Descending Albuquerque Center
Sat 12:46:36 PM 33.8403 -111.4814 236° Southwest 295 339 14,300 -1,512 Descending Albuquerque Center
Sat 12:47:38 PM 33.7975 -111.5631 238° Southwest 288 331 12,700 -1,548 Descending Albuquerque Center
Sat 12:48:40 PM 33.7539 -111.6464 238° Southwest 292 336 11,100 -1,306 Descending Albuquerque Center
Sat 12:49:42 PM 33.7111 -111.7278 238° Southwest 288 331 10,000 -581 Descending Albuquerque Center
Sat 12:50:44 PM 33.6672 -111.8081 237° Southwest 285 328 9,900 -435 Descending Albuquerque Center
Sat 12:51:46 PM 33.6239 -111.8858 236° Southwest 279 321 9,100 -484 Descending Albuquerque Center
Sat 12:52:48 PM 33.5858 -111.9556 237° Southwest 254 292 8,900 -677 Descending Albuquerque Center
Sat 12:53:50 PM 33.5506 -112.0242 238° Southwest 244 281 7,700 -968 Descending Albuquerque Center
Sat 12:54:52 PM 33.5250 -112.1119 251° West 231 266 6,900 -871 Descending Albuquerque Center
Sat 12:55:54 PM 33.5247 -112.1878 270° West 228 262 5,900 -1,065 Descending Albuquerque Center
Sat 12:56:56 PM 33.4692 -112.2172 204° Southwest 241 277 4,700 -1,016 Descending Albuquerque Center
Sat 12:57:58 PM 33.4411 -112.1633 122° Southeast 215 247 3,800 -968 Descending Albuquerque Center
Sat 12:59:00 PM 33.4403 -112.1072 91° East 175 201 2,700 -1,024 Descending Albuquerque Center
Sat 01:00:01 PM 33.4411 -112.0592 89° East 150 173 1,700 -780 Descending Albuquerque Center
Sat 01:01:03 PM 33.4394 -112.0078 92° East 141 162 1,100 -581 Descending Albuquerque Center

Login

Don't have an account? Register now (free) for customized features, flight alerts, and more!